Time;durP1;ratioP1;P1;durP2;ratioP2;P2;SDS_P1;SDS_P2;PMS_P1;PMS_P2;Temp;Humidity;BMP_temperature;BMP_pressure;BME280_temperature;BME280_humidity;BME280_pressure;Samples;Min_cycle;Max_cycle;Signal;HPM_P1;HPM_P2
2024/03/10 00:00:54;;;;;;;0.70;0.70;;;8.20;99.90;;;;;;5067774;28;20203;-81
2024/03/10 00:03:27;;;;;;;3.33;3.03;;;8.20;99.90;;;;;;5100559;28;20270;-82
2024/03/10 00:05:58;;;;;;;1.73;1.63;;;8.20;99.90;;;;;;5109961;28;20261;-81
2024/03/10 00:08:26;;;;;;;2.80;2.60;;;8.20;99.90;;;;;;5102439;28;20237;-83
2024/03/10 00:10:54;;;;;;;3.67;2.03;;;8.20;99.90;;;;;;5084731;28;20194;-82
2024/03/10 00:13:22;;;;;;;3.33;3.22;;;8.20;99.90;;;;;;5084502;28;20198;-84
2024/03/10 00:15:50;;;;;;;3.13;2.95;;;8.20;99.90;;;;;;5068341;28;20267;-82
2024/03/10 00:18:18;;;;;;;1.40;1.30;;;8.10;99.90;;;;;;5085381;28;20205;-82
2024/03/10 00:20:50;;;;;;;3.65;3.35;;;8.10;99.90;;;;;;5103904;28;20359;-83
2024/03/10 00:23:17;;;;;;;3.42;3.22;;;8.10;99.90;;;;;;5090564;28;20198;-82
2024/03/10 00:25:48;;;;;;;1.38;1.27;;;8.10;99.90;;;;;;5096690;28;20503;-84
2024/03/10 00:28:15;;;;;;;2.97;2.72;;;8.10;99.90;;;;;;5099347;28;20202;-82
2024/03/10 00:30:48;;;;;;;1.85;1.63;;;8.20;99.90;;;;;;5102050;28;20208;-80
2024/03/10 00:33:19;;;;;;;1.60;1.58;;;8.10;99.90;;;;;;5093625;28;20203;-85
2024/03/10 00:35:48;;;;;;;0.98;0.98;;;8.10;99.90;;;;;;5097175;28;20272;-84
2024/03/10 00:38:15;;;;;;;2.15;2.05;;;8.10;99.90;;;;;;5102429;28;20257;-84
2024/03/10 00:40:46;;;;;;;1.35;1.35;;;8.10;99.90;;;;;;5076657;28;20211;-83
2024/03/10 00:43:15;;;;;;;2.63;2.53;;;8.10;99.90;;;;;;5113294;28;20243;-81
2024/03/10 00:45:52;;;;;;;4.55;4.25;;;8.10;99.90;;;;;;5103234;28;20202;-83
2024/03/10 00:48:19;;;;;;;2.53;2.42;;;8.00;99.90;;;;;;5104625;28;20216;-82
2024/03/10 00:50:46;;;;;;;1.55;1.55;;;8.00;99.90;;;;;;5105700;28;20213;-82
2024/03/10 00:53:16;;;;;;;2.90;2.72;;;8.00;99.90;;;;;;5108053;28;20606;-82
2024/03/10 00:55:43;;;;;;;50.08;4.35;;;8.00;99.90;;;;;;5100658;28;20234;-83
2024/03/10 00:58:10;;;;;;;2.05;1.95;;;8.00;99.90;;;;;;5082837;28;20202;-79
2024/03/10 01:00:39;;;;;;;2.33;2.17;;;8.00;99.90;;;;;;5103217;28;20237;-81
2024/03/10 01:03:06;;;;;;;3.58;3.30;;;8.00;99.90;;;;;;5101167;28;20233;-82
2024/03/10 01:05:36;;;;;;;1.35;1.35;;;8.00;99.90;;;;;;5098320;28;20282;-81
2024/03/10 01:08:04;;;;;;;2.22;2.13;;;8.00;99.90;;;;;;5100837;28;20194;-85
2024/03/10 01:10:31;;;;;;;3.08;2.88;;;8.00;99.90;;;;;;5108834;28;20249;-80
2024/03/10 01:13:07;;;;;;;1.23;1.23;;;8.00;99.90;;;;;;5105174;28;20201;-83
2024/03/10 01:15:35;;;;;;;2.30;2.20;;;8.00;99.90;;;;;;5103451;28;20309;-85
2024/03/10 01:18:04;;;;;;;3.45;3.35;;;7.80;99.90;;;;;;5080224;28;20249;-85
2024/03/10 01:20:33;;;;;;;1.40;1.30;;;8.00;99.90;;;;;;5085704;28;20241;-83
2024/03/10 01:23:01;;;;;;;1.60;1.60;;;8.00;99.90;;;;;;5106242;28;20225;-84
2024/03/10 01:25:31;;;;;;;6.80;3.08;;;8.10;99.90;;;;;;5105451;28;20214;-86
2024/03/10 01:28:00;;;;;;;2.70;2.50;;;7.90;99.90;;;;;;5102427;28;20249;-84
2024/03/10 01:30:32;;;;;;;1.73;1.63;;;7.90;99.90;;;;;;5106025;28;20232;-86
2024/03/10 01:33:00;;;;;;;2.05;1.55;;;8.10;99.90;;;;;;5086107;28;20266;-82
2024/03/10 01:35:31;;;;;;;1.65;1.55;;;7.80;99.90;;;;;;5102298;28;20221;-85
2024/03/10 01:37:59;;;;;;;3.28;2.53;;;7.90;99.90;;;;;;5097379;28;20438;-83
2024/03/10 01:40:28;;;;;;;3.03;2.80;;;7.90;99.90;;;;;;5098178;28;20248;-83
2024/03/10 01:42:55;;;;;;;2.25;2.15;;;7.90;99.90;;;;;;5099013;28;20266;-83
2024/03/10 01:45:26;;;;;;;1.25;1.25;;;7.90;99.90;;;;;;5097858;28;20239;-87
2024/03/10 01:48:06;;;;;;;4.57;3.25;;;7.90;99.90;;;;;;5091450;28;20202;-84
2024/03/10 01:50:35;;;;;;;2.10;2.00;;;7.90;99.90;;;;;;5108166;28;20266;-87
2024/03/10 01:53:03;;;;;;;2.10;2.00;;;7.90;99.90;;;;;;5092735;28;20418;-84
2024/03/10 01:55:32;;;;;;;4.43;3.35;;;7.90;99.90;;;;;;5105163;28;20237;-83
2024/03/10 01:58:00;;;;;;;2.00;1.90;;;7.90;99.90;;;;;;5092973;28;20210;-86
2024/03/10 02:00:28;;;;;;;2.40;2.30;;;7.80;99.90;;;;;;5088918;28;20198;-84
2024/03/10 02:02:57;;;;;;;4.32;4.07;;;7.80;99.90;;;;;;5093789;28;20222;-86
2024/03/10 02:05:25;;;;;;;2.45;2.25;;;7.80;99.90;;;;;;5104547;28;20226;-86
2024/03/10 02:07:56;;;;;;;4.53;3.47;;;7.80;99.90;;;;;;5103607;28;20213;-85
2024/03/10 02:10:24;;;;;;;2.53;2.42;;;7.70;99.90;;;;;;5123032;27;20210;-85
2024/03/10 02:12:53;;;;;;;2.17;1.80;;;7.70;99.90;;;;;;5110655;27;20246;-81
2024/03/10 02:15:23;;;;;;;2.47;2.38;;;7.60;99.90;;;;;;5111685;27;20232;-85
2024/03/10 02:17:51;;;;;;;8.65;4.20;;;7.60;99.90;;;;;;5103645;28;20199;-87
2024/03/10 02:20:21;;;;;;;3.63;2.75;;;7.70;99.90;;;;;;5104151;28;20220;-83
2024/03/10 02:22:53;;;;;;;2.63;2.53;;;7.60;99.90;;;;;;5103766;28;20198;-82
2024/03/10 02:25:34;;;;;;;2.40;2.20;;;7.60;99.90;;;;;;5091552;28;20267;-86
2024/03/10 02:28:09;;;;;;;3.70;3.15;;;7.60;99.90;;;;;;5100057;27;20194;-82
2024/03/10 02:30:43;;;;;;;1.73;1.63;;;7.60;99.90;;;;;;5100019;28;20197;-84
2024/03/10 02:47:23;;;;;;;2.75;2.55;;;7.80;99.90;;;;;;5118191;28;20234;-86
2024/03/10 02:49:50;;;;;;;5.25;4.95;;;7.70;99.90;;;;;;5110945;28;20216;-86
2024/03/10 02:52:19;;;;;;;2.22;2.10;;;7.70;99.90;;;;;;5087533;28;20195;-84
2024/03/10 02:54:48;;;;;;;5.78;4.47;;;7.80;99.90;;;;;;5091222;28;20390;-86
2024/03/10 02:57:16;;;;;;;3.30;2.55;;;7.70;99.90;;;;;;5107262;28;20225;-84
2024/03/10 02:59:44;;;;;;;4.80;4.40;;;7.70;99.90;;;;;;5112233;28;20190;-86
2024/03/10 03:02:11;;;;;;;2.55;2.45;;;7.70;99.90;;;;;;5134465;27;20291;-84
2024/03/10 03:04:48;;;;;;;2.92;2.83;;;7.70;99.90;;;;;;5106937;28;20273;-83
2024/03/10 03:07:18;;;;;;;2.38;1.92;;;7.70;99.90;;;;;;5110633;28;20207;-85
2024/03/10 03:09:46;;;;;;;1.63;1.50;;;7.80;99.90;;;;;;5090386;28;20210;-85
2024/03/10 03:12:13;;;;;;;1.67;1.60;;;7.80;99.90;;;;;;5071284;28;20218;-84
2024/03/10 03:14:44;;;;;;;2.15;2.00;;;7.90;99.90;;;;;;5089357;28;20206;-80
2024/03/10 03:17:13;;;;;;;3.70;2.90;;;7.80;99.90;;;;;;5109260;28;20237;-83
2024/03/10 03:19:43;;;;;;;2.33;2.13;;;7.80;99.90;;;;;;5094582;28;20222;-87
2024/03/10 03:22:11;;;;;;;3.03;2.88;;;7.90;99.90;;;;;;5092142;28;20208;-84
2024/03/10 03:24:39;;;;;;;3.40;3.08;;;8.00;99.90;;;;;;5113753;27;20228;-88
2024/03/10 03:27:22;;;;;;;4.03;3.78;;;8.00;99.90;;;;;;5115021;27;20212;-82
2024/03/10 03:29:50;;;;;;;2.17;2.08;;;7.90;99.90;;;;;;5106849;28;20230;-87
2024/03/10 03:32:21;;;;;;;1.27;1.27;;;7.80;99.90;;;;;;5110734;28;20202;-85
2024/03/10 03:34:52;;;;;;;2.15;2.05;;;8.00;99.90;;;;;;5092304;28;20226;-87
2024/03/10 03:37:24;;;;;;;3.30;3.17;;;8.00;99.90;;;;;;5084926;28;20431;-83
2024/03/10 03:39:53;;;;;;;2.45;2.35;;;8.00;99.90;;;;;;5092163;28;20202;-82
2024/03/10 03:42:23;;;;;;;2.78;2.67;;;8.10;99.90;;;;;;5109839;28;20280;-82
2024/03/10 03:44:58;;;;;;;2.05;1.88;;;8.10;99.90;;;;;;5117573;27;20228;-84
2024/03/10 03:47:29;;;;;;;5.13;4.60;;;8.10;99.90;;;;;;5187463;22;20233;-85
2024/03/10 03:49:56;;;;;;;3.78;3.50;;;8.10;99.90;;;;;;5102359;28;20233;-82
2024/03/10 03:52:26;;;;;;;1.20;1.20;;;8.10;99.90;;;;;;5090588;28;20254;-86
2024/03/10 03:54:57;;;;;;;2.38;2.28;;;8.10;99.90;;;;;;5106854;28;20286;-84
2024/03/10 03:57:25;;;;;;;2.20;2.10;;;8.10;99.90;;;;;;5111464;28;20290;-84
2024/03/10 03:59:58;;;;;;;3.70;2.35;;;8.30;99.90;;;;;;5108810;28;20214;-87
2024/03/10 04:02:30;;;;;;;2.22;2.13;;;8.10;99.90;;;;;;5127445;28;20190;-79
2024/03/10 04:04:58;;;;;;;3.42;2.72;;;8.10;99.90;;;;;;5108290;28;20212;-87
2024/03/10 04:07:28;;;;;;;2.30;2.08;;;8.10;99.90;;;;;;5094973;28;20210;-85
2024/03/10 04:09:57;;;;;;;1.85;1.75;;;8.10;99.90;;;;;;5090217;28;20249;-81
2024/03/10 04:12:24;;;;;;;3.50;3.20;;;8.10;99.90;;;;;;5094896;28;20271;-84
2024/03/10 04:14:52;;;;;;;2.13;2.03;;;8.10;99.90;;;;;;5100582;28;20225;-85
2024/03/10 04:17:20;;;;;;;6.90;4.38;;;8.00;99.90;;;;;;5082856;28;20222;-83
2024/03/10 04:19:51;;;;;;;2.17;2.08;;;8.10;99.90;;;;;;5105804;28;20195;-85
2024/03/10 04:22:22;;;;;;;3.72;3.53;;;7.90;99.90;;;;;;5110378;28;20198;-84
2024/03/10 04:24:50;;;;;;;2.08;1.98;;;8.10;99.90;;;;;;5099249;28;20238;-86
2024/03/10 04:27:23;;;;;;;2.40;2.28;;;8.10;99.90;;;;;;5089164;28;20206;-86
2024/03/10 04:29:55;;;;;;;1.85;1.83;;;8.10;99.90;;;;;;5096852;28;20206;-84
2024/03/10 04:32:21;;;;;;;6.82;6.40;;;8.10;99.90;;;;;;5091216;28;20232;-87
2024/03/10 04:34:49;;;;;;;4.20;3.90;;;8.20;99.90;;;;;;5108581;28;20236;-84
2024/03/10 04:37:20;;;;;;;2.50;2.35;;;8.10;99.90;;;;;;5096635;28;20240;-83
2024/03/10 04:39:48;;;;;;;1.67;1.63;;;8.10;99.90;;;;;;5089129;28;20252;-87
2024/03/10 04:42:25;;;;;;;2.55;2.45;;;8.10;99.90;;;;;;5113068;28;20809;-86
2024/03/10 04:44:53;;;;;;;2.88;2.67;;;8.10;99.90;;;;;;5098469;28;20195;-84
2024/03/10 04:47:24;;;;;;;2.50;2.40;;;8.10;99.90;;;;;;5091803;28;20211;-87
2024/03/10 04:49:52;;;;;;;4.03;3.38;;;8.10;99.90;;;;;;5092101;28;20207;-88
2024/03/10 04:52:23;;;;;;;2.15;1.67;;;8.10;99.90;;;;;;5085790;28;20195;-84
2024/03/10 04:54:52;;;;;;;2.78;2.25;;;8.10;99.90;;;;;;5100167;28;20253;-83
2024/03/10 04:57:21;;;;;;;4.72;2.70;;;8.20;99.90;;;;;;5093825;28;20241;-88
2024/03/10 04:59:49;;;;;;;9.95;7.95;;;8.20;99.90;;;;;;5100519;28;20206;-85
2024/03/10 05:02:16;;;;;;;4.50;4.25;;;8.20;99.90;;;;;;5110353;28;20229;-82
2024/03/10 05:04:46;;;;;;;3.88;3.67;;;8.20;99.90;;;;;;5120249;28;20206;-85
2024/03/10 05:07:13;;;;;;;2.55;2.35;;;8.10;99.90;;;;;;5114291;28;20203;-85
2024/03/10 05:09:40;;;;;;;2.05;1.95;;;8.10;99.90;;;;;;5092797;28;20218;-84
2024/03/10 05:12:12;;;;;;;1.08;1.08;;;8.20;99.90;;;;;;5102087;28;20495;-83
2024/03/10 05:14:40;;;;;;;1.23;1.23;;;8.20;99.90;;;;;;5095283;28;20210;-82
2024/03/10 05:17:11;;;;;;;1.45;1.45;;;8.20;99.90;;;;;;5102700;28;20222;-84
2024/03/10 05:19:44;;;;;;;4.68;4.40;;;8.20;99.90;;;;;;5104100;28;20228;-86
2024/03/10 05:22:12;;;;;;;1.13;1.13;;;8.10;99.90;;;;;;5094186;28;20437;-86
2024/03/10 05:24:43;;;;;;;2.20;2.00;;;8.20;99.90;;;;;;5093680;28;20226;-85
2024/03/10 05:27:17;;;;;;;3.38;3.20;;;8.20;99.90;;;;;;5096062;28;20207;-83
2024/03/10 05:29:44;;;;;;;3.55;2.67;;;8.20;99.90;;;;;;5095451;28;20236;-83
2024/03/10 05:32:12;;;;;;;2.65;2.55;;;8.20;99.90;;;;;;5101680;28;20210;-87
2024/03/10 05:34:40;;;;;;;2.70;2.50;;;8.30;99.90;;;;;;5093872;28;20586;-83
2024/03/10 05:37:07;;;;;;;1.95;1.35;;;8.30;99.90;;;;;;5095554;28;20230;-85
2024/03/10 05:39:34;;;;;;;4.63;4.22;;;8.20;99.90;;;;;;5100526;28;20715;-88
2024/03/10 05:42:05;;;;;;;4.93;4.53;;;8.20;99.90;;;;;;5100459;28;20219;-84
2024/03/10 05:47:01;;;;;;;3.17;2.97;;;8.30;99.90;;;;;;5050601;28;20238;-88
2024/03/10 05:49:30;;;;;;;4.88;2.80;;;8.30;99.90;;;;;;5050022;28;20195;-87
2024/03/10 05:52:03;;;;;;;2.20;2.00;;;8.30;99.90;;;;;;5122905;22;20236;-91
2024/03/10 05:54:31;;;;;;;3.35;3.20;;;8.30;99.90;;;;;;5042196;28;20229;-82
2024/03/10 05:56:59;;;;;;;4.72;3.38;;;8.40;99.90;;;;;;5024798;28;20445;-85
2024/03/10 05:59:33;;;;;;;2.45;2.35;;;8.40;99.90;;;;;;5038294;28;20208;-80
2024/03/10 06:02:04;;;;;;;1.00;1.00;;;8.40;99.90;;;;;;5041442;28;20212;-82
2024/03/10 06:04:32;;;;;;;4.90;4.60;;;8.40;99.90;;;;;;5047179;28;20232;-84
2024/03/10 06:07:02;;;;;;;0.85;0.85;;;8.40;99.90;;;;;;5043362;28;20226;-83
2024/03/10 06:09:34;;;;;;;1.48;1.15;;;8.40;99.90;;;;;;5030080;28;20228;-84
2024/03/10 06:12:08;;;;;;;1.63;1.63;;;8.40;99.90;;;;;;5029777;28;20584;-82
2024/03/10 06:14:38;;;;;;;0.90;0.90;;;8.40;99.90;;;;;;5041192;28;20205;-82
2024/03/10 06:17:08;;;;;;;2.88;2.70;;;8.40;99.90;;;;;;5029773;28;20233;-84
2024/03/10 06:25:45;;;;;;;2.20;2.10;;;8.50;99.90;;;;;;5049174;28;20238;-85
2024/03/10 06:28:13;;;;;;;6.90;4.90;;;8.50;99.90;;;;;;5035764;28;20213;-81
2024/03/10 06:30:42;;;;;;;2.45;2.35;;;8.40;99.90;;;;;;5046251;28;20215;-82
2024/03/10 06:33:12;;;;;;;2.78;2.58;;;8.60;99.90;;;;;;5058451;28;20223;-85
2024/03/10 06:35:42;;;;;;;1.00;1.00;;;8.60;99.90;;;;;;5050004;28;20200;-83
2024/03/10 06:38:11;;;;;;;1.90;1.80;;;8.60;99.90;;;;;;5043572;28;20405;-80
2024/03/10 06:40:38;;;;;;;2.40;2.30;;;8.60;99.90;;;;;;5044140;28;20200;-82
2024/03/10 06:43:05;;;;;;;2.20;2.00;;;8.70;99.90;;;;;;5046497;28;20212;-82
2024/03/10 06:45:33;;;;;;;2.95;2.75;;;8.80;99.90;;;;;;5048638;28;20322;-81
2024/03/10 06:48:03;;;;;;;3.40;3.17;;;8.80;99.90;;;;;;5051152;28;20528;-85
2024/03/10 06:50:32;;;;;;;3.10;2.90;;;8.80;99.90;;;;;;5043077;28;20205;-85
2024/03/10 06:53:03;;;;;;;2.83;2.55;;;8.80;99.90;;;;;;5037031;28;20213;-83
2024/03/10 06:55:30;;;;;;;3.42;3.17;;;8.90;99.90;;;;;;5036496;28;20208;-88
2024/03/10 06:57:57;;;;;;;0.93;0.93;;;8.90;99.90;;;;;;5049073;28;20795;-87
2024/03/10 07:00:25;;;;;;;3.10;2.90;;;8.90;99.90;;;;;;5048488;28;20216;-85
2024/03/10 07:02:53;;;;;;;2.58;2.47;;;9.00;99.90;;;;;;5051557;28;20278;-86
2024/03/10 07:05:20;;;;;;;1.42;1.42;;;9.10;99.90;;;;;;5054080;28;20201;-82
2024/03/10 07:14:20;;;;;;;3.88;2.92;;;9.20;99.90;;;;;;5102109;22;20383;-86
2024/03/10 07:19:47;;;;;;;0.98;0.98;;;9.30;99.90;;;;;;4960124;28;20195;-86
2024/03/10 07:22:15;;;;;;;0.70;0.70;;;9.30;99.90;;;;;;4959634;28;20195;-84
2024/03/10 07:24:48;;;;;;;2.97;2.85;;;9.40;99.90;;;;;;4958229;29;20211;-87
2024/03/10 07:27:20;;;;;;;2.35;2.15;;;9.50;99.90;;;;;;4958421;29;20516;-84
2024/03/10 07:29:49;;;;;;;1.60;1.50;;;9.60;99.90;;;;;;4954092;29;20208;-88
2024/03/10 07:32:22;;;;;;;0.80;0.80;;;9.60;99.90;;;;;;5209482;22;20244;-92
2024/03/10 07:34:57;;;;;;;1.13;1.13;;;9.70;99.90;;;;;;5041139;28;20189;-87
2024/03/10 07:37:30;;;;;;;0.50;0.50;;;9.70;99.90;;;;;;5208542;23;20222;-85
2024/03/10 07:39:57;;;;;;;4.55;2.25;;;9.80;99.90;;;;;;5030317;28;20500;-91
2024/03/10 07:42:25;;;;;;;1.10;1.10;;;9.80;99.90;;;;;;5028229;28;20205;-87
2024/03/10 07:44:53;;;;;;;0.65;0.65;;;9.80;99.90;;;;;;5030605;28;20231;-86
2024/03/10 07:47:21;;;;;;;0.70;0.70;;;9.80;99.90;;;;;;5049685;28;20231;-85
2024/03/10 07:49:57;;;;;;;0.80;0.80;;;9.90;99.90;;;;;;5022374;28;20209;-86
2024/03/10 07:52:28;;;;;;;1.60;1.52;;;9.90;99.90;;;;;;5030645;28;20710;-90
2024/03/10 07:54:56;;;;;;;1.55;1.55;;;9.90;99.90;;;;;;5041532;28;20196;-86
2024/03/10 07:57:29;;;;;;;2.70;2.55;;;10.00;99.90;;;;;;5031553;28;20224;-86
2024/03/10 07:59:56;;;;;;;3.42;1.05;;;9.90;99.90;;;;;;5060134;28;20231;-88
2024/03/10 08:02:23;;;;;;;1.63;1.55;;;9.90;99.90;;;;;;5051264;28;20208;-86
2024/03/10 08:04:52;;;;;;;0.60;0.60;;;10.00;99.90;;;;;;5053505;28;20370;-88
2024/03/10 08:07:23;;;;;;;1.95;1.50;;;10.00;99.90;;;;;;5034239;28;20216;-89
2024/03/10 08:09:58;;;;;;;4.18;3.92;;;10.00;99.90;;;;;;5056475;28;20471;-87
2024/03/10 08:15:14;;;;;;;2.25;1.92;;;10.00;99.90;;;;;;5095287;23;20296;-90
2024/03/10 08:17:44;;;;;;;2.72;2.58;;;10.20;99.90;;;;;;5049599;28;20227;-88
2024/03/10 08:20:16;;;;;;;2.13;1.98;;;10.00;99.90;;;;;;5037192;28;20254;-86
2024/03/10 08:22:45;;;;;;;2.67;2.58;;;10.00;99.90;;;;;;5053992;28;20193;-89
2024/03/10 08:25:18;;;;;;;1.58;1.52;;;10.10;99.90;;;;;;5236610;22;20251;-87
2024/03/10 08:27:51;;;;;;;1.80;1.70;;;10.10;99.90;;;;;;5048857;28;20235;-86
2024/03/10 08:30:23;;;;;;;1.55;1.45;;;10.10;99.90;;;;;;5048051;28;20211;-87
2024/03/10 08:32:52;;;;;;;3.25;2.25;;;10.30;99.90;;;;;;5050799;28;20191;-88
2024/03/10 08:35:20;;;;;;;0.70;0.70;;;10.40;99.90;;;;;;5035994;28;20287;-85
2024/03/10 08:37:49;;;;;;;0.98;0.98;;;10.50;99.90;;;;;;5054937;28;20231;-87
2024/03/10 08:40:35;;;;;;;0.88;0.88;;;10.60;99.90;;;;;;5055489;28;20256;-88
2024/03/10 08:43:07;;;;;;;2.63;2.53;;;10.80;99.90;;;;;;5286257;22;20234;-86
2024/03/10 08:47:28;;;;;;;2.17;2.08;;;10.90;99.90;;;;;;5153131;27;244402;-89
2024/03/10 08:50:02;;;;;;;0.82;0.82;;;11.00;99.90;;;;;;5149432;27;20554;-85
2024/03/10 08:52:31;;;;;;;1.17;1.17;;;10.90;99.90;;;;;;5111387;28;20192;-83
2024/03/10 08:54:59;;;;;;;1.02;1.02;;;10.80;99.90;;;;;;5113244;28;20210;-83
2024/03/10 08:57:35;;;;;;;5.88;2.17;;;10.70;99.90;;;;;;5121300;28;20197;-80
2024/03/10 09:00:04;;;;;;;0.50;0.50;;;10.80;99.90;;;;;;5149840;27;20186;-84
2024/03/10 09:02:33;;;;;;;3.72;3.53;;;10.80;99.90;;;;;;5142383;28;20209;-82
2024/03/10 09:05:01;;;;;;;1.23;1.23;;;10.80;99.90;;;;;;5122749;28;20319;-86
2024/03/10 09:07:32;;;;;;;2.05;2.00;;;10.80;99.90;;;;;;5121725;28;20334;-85
2024/03/10 09:10:00;;;;;;;3.97;3.72;;;10.90;99.90;;;;;;5139896;28;20233;-86
2024/03/10 09:12:29;;;;;;;1.52;1.45;;;10.90;99.90;;;;;;5142750;27;20198;-88
2024/03/10 09:15:02;;;;;;;1.88;1.65;;;10.80;99.90;;;;;;5142189;28;20198;-85
2024/03/10 09:17:31;;;;;;;1.42;1.42;;;10.70;99.90;;;;;;5150581;27;20201;-87
2024/03/10 09:19:58;;;;;;;0.63;0.63;;;10.80;99.90;;;;;;5152243;27;20196;-87
2024/03/10 09:22:27;;;;;;;1.35;1.30;;;10.80;99.90;;;;;;5141225;27;20258;-84
2024/03/10 09:24:54;;;;;;;0.50;0.50;;;10.80;99.90;;;;;;5127914;28;20261;-83
2024/03/10 09:27:23;;;;;;;0.52;0.52;;;10.80;99.90;;;;;;5140729;28;20274;-84
2024/03/10 09:29:59;;;;;;;0.60;0.60;;;10.80;99.90;;;;;;5134323;27;20205;-84
2024/03/10 09:32:26;;;;;;;2.78;1.30;;;10.60;99.90;;;;;;5125007;27;20201;-89
2024/03/10 09:34:55;;;;;;;2.42;2.28;;;10.60;99.90;;;;;;5126661;28;20221;-84
2024/03/10 09:37:30;;;;;;;1.33;1.25;;;10.60;99.90;;;;;;5134076;27;20205;-82
2024/03/10 09:40:09;;;;;;;1.30;1.25;;;10.80;99.90;;;;;;5142773;27;20223;-83
2024/03/10 09:42:38;;;;;;;1.38;1.38;;;10.70;99.90;;;;;;5142275;27;20272;-88
2024/03/10 09:45:21;;;;;;;2.70;2.55;;;10.70;99.90;;;;;;5148711;27;20205;-87
2024/03/10 09:47:49;;;;;;;0.70;0.70;;;10.80;99.90;;;;;;5138953;27;20252;-82
2024/03/10 09:50:24;;;;;;;0.93;0.93;;;11.10;99.90;;;;;;5136722;27;20460;-87
2024/03/10 09:52:55;;;;;;;0.90;0.90;;;11.20;99.90;;;;;;5139070;27;20214;-84
2024/03/10 09:55:24;;;;;;;1.27;1.17;;;11.50;99.90;;;;;;5139517;27;20214;-85
2024/03/10 09:57:53;;;;;;;1.35;1.35;;;11.70;99.90;;;;;;5126650;27;20204;-86
2024/03/10 10:00:27;;;;;;;0.80;0.80;;;11.90;99.90;;;;;;5101211;28;20489;-85
2024/03/10 10:03:01;;;;;;;7.72;2.85;;;12.00;99.90;;;;;;5116466;27;20440;-82
2024/03/10 10:05:38;;;;;;;1.98;1.80;;;11.70;99.90;;;;;;5124612;28;20212;-85
2024/03/10 10:08:13;;;;;;;1.10;1.10;;;11.90;99.90;;;;;;5122900;27;20219;-83
2024/03/10 10:10:50;;;;;;;1.48;1.38;;;11.80;99.90;;;;;;5105833;27;20470;-83
2024/03/10 10:13:27;;;;;;;1.57;1.53;;;11.90;99.90;;;;;;5109734;28;20203;-88
2024/03/10 10:15:57;;;;;;;1.57;1.47;;;11.80;99.90;;;;;;5102800;28;20443;-83
2024/03/10 10:18:28;;;;;;;15.15;2.70;;;11.80;99.90;;;;;;5123516;27;20560;-83
2024/03/10 10:21:07;;;;;;;0.80;0.80;;;11.80;99.90;;;;;;5115628;27;20207;-84
2024/03/10 10:23:37;;;;;;;1.17;1.17;;;12.10;99.90;;;;;;5127331;27;20339;-85
2024/03/10 10:26:10;;;;;;;2.13;2.03;;;12.00;99.90;;;;;;5119885;28;20480;-83
2024/03/10 10:28:37;;;;;;;2.00;1.90;;;12.10;99.90;;;;;;5126574;27;20210;-85
2024/03/10 10:31:23;;;;;;;0.70;0.70;;;12.20;99.90;;;;;;5125902;27;20443;-85
2024/03/10 10:33:53;;;;;;;7.13;2.25;;;12.20;99.90;;;;;;5126059;27;20195;-80
2024/03/10 10:36:21;;;;;;;1.95;1.85;;;12.00;99.90;;;;;;5123469;27;20290;-85
2024/03/10 10:38:49;;;;;;;2.55;2.35;;;12.20;99.90;;;;;;5124556;27;20259;-86
2024/03/10 10:41:24;;;;;;;2.20;1.60;;;12.40;99.90;;;;;;5133556;27;20214;-85
2024/03/10 10:43:57;;;;;;;1.60;1.43;;;12.00;99.90;;;;;;5128711;27;20477;-89
2024/03/10 10:46:26;;;;;;;1.25;1.00;;;12.30;99.90;;;;;;5123531;27;20656;-83
2024/03/10 10:48:55;;;;;;;2.23;2.13;;;12.00;99.90;;;;;;5120485;27;20258;-85
2024/03/10 10:51:22;;;;;;;2.08;1.98;;;12.00;99.90;;;;;;5112615;27;20497;-85
2024/03/10 10:53:51;;;;;;;1.27;1.27;;;12.00;99.90;;;;;;5111598;28;20508;-84
2024/03/10 10:56:21;;;;;;;0.77;0.77;;;12.20;99.90;;;;;;5119551;28;20455;-82
2024/03/10 10:59:01;;;;;;;1.08;1.08;;;12.20;99.90;;;;;;5120897;28;20450;-82
2024/03/10 11:01:43;;;;;;;6.63;2.10;;;12.20;99.90;;;;;;5121588;27;20203;-82
2024/03/10 11:04:13;;;;;;;1.17;1.17;;;12.20;99.90;;;;;;5141083;27;20516;-83
2024/03/10 11:06:44;;;;;;;3.03;1.80;;;12.40;99.70;;;;;;5117430;28;20503;-85
2024/03/10 11:09:27;;;;;;;0.60;0.60;;;12.20;99.90;;;;;;5114764;27;20430;-86
2024/03/10 11:11:57;;;;;;;2.20;2.10;;;12.30;99.90;;;;;;5117604;28;20231;-84
2024/03/10 11:14:38;;;;;;;1.33;1.30;;;12.20;99.90;;;;;;5134436;27;20470;-83
2024/03/10 11:17:19;;;;;;;1.00;1.00;;;12.30;99.90;;;;;;5095422;28;20291;-84
2024/03/10 11:19:53;;;;;;;3.90;3.70;;;12.10;99.90;;;;;;5131821;27;20416;-85
2024/03/10 11:22:27;;;;;;;1.63;1.53;;;12.10;99.90;;;;;;5104775;27;20454;-83
2024/03/10 11:25:08;;;;;;;3.17;2.63;;;12.10;99.90;;;;;;5128846;27;20447;-87
2024/03/10 11:27:45;;;;;;;0.90;0.90;;;12.30;99.90;;;;;;5106712;27;20819;-81
2024/03/10 11:30:40;;;;;;;1.13;1.13;;;12.40;99.90;;;;;;5107104;28;20227;-85
2024/03/10 11:33:11;;;;;;;1.43;1.43;;;12.50;99.90;;;;;;5174773;22;20506;-88
2024/03/10 11:36:02;;;;;;;1.00;1.00;;;12.60;99.90;;;;;;5092907;28;20475;-88
2024/03/10 11:38:30;;;;;;;0.60;0.60;;;12.50;99.90;;;;;;5090179;28;20463;-87
2024/03/10 11:41:05;;;;;;;1.10;1.10;;;12.40;99.90;;;;;;5074177;28;20402;-82
2024/03/10 11:46:33;;;;;;;0.80;0.80;;;12.40;99.90;;;;;;5374600;22;20237;-85
2024/03/10 11:49:06;;;;;;;1.10;1.10;;;12.40;99.90;;;;;;5104017;22;20475;-86
2024/03/10 11:51:46;;;;;;;4.72;3.25;;;12.50;99.90;;;;;;5111156;28;20409;-82
2024/03/10 11:54:15;;;;;;;1.17;1.17;;;12.50;99.90;;;;;;5087472;28;20184;-87
2024/03/10 11:56:52;;;;;;;1.10;1.10;;;12.60;99.90;;;;;;5086236;28;20205;-88
2024/03/10 11:59:32;;;;;;;0.70;0.70;;;12.90;99.90;;;;;;5093491;28;20396;-86
2024/03/10 12:02:03;;;;;;;0.70;0.70;;;12.90;99.90;;;;;;5108900;28;20433;-85
2024/03/10 12:04:32;;;;;;;2.20;2.10;;;13.00;99.90;;;;;;5096959;28;20415;-83
2024/03/10 12:07:02;;;;;;;2.60;2.40;;;12.90;99.90;;;;;;5099687;28;20493;-84
2024/03/10 12:09:34;;;;;;;0.83;0.83;;;12.70;99.90;;;;;;5075176;28;20502;-87
2024/03/10 12:12:14;;;;;;;2.50;2.40;;;12.60;99.90;;;;;;5195878;22;21637;-84
2024/03/10 12:14:44;;;;;;;2.13;2.03;;;12.80;99.90;;;;;;5110923;28;20453;-88
2024/03/10 12:17:19;;;;;;;0.93;0.93;;;12.80;99.90;;;;;;5086773;28;20461;-89
2024/03/10 12:19:58;;;;;;;1.23;1.23;;;12.90;99.90;;;;;;5087254;28;20418;-84
2024/03/10 12:22:26;;;;;;;7.90;2.90;;;12.90;99.90;;;;;;5099352;28;20419;-86
2024/03/10 12:24:58;;;;;;;2.50;2.00;;;12.90;99.90;;;;;;5385632;22;20502;-89
2024/03/10 12:27:32;;;;;;;0.90;0.90;;;13.10;99.90;;;;;;5095220;28;20487;-86
2024/03/10 12:30:00;;;;;;;1.10;1.10;;;13.00;99.90;;;;;;5107928;28;20440;-85
2024/03/10 12:32:27;;;;;;;1.67;1.27;;;13.10;99.90;;;;;;5078827;28;20515;-87
2024/03/10 12:35:00;;;;;;;0.70;0.70;;;13.30;99.90;;;;;;5088111;28;20437;-87
2024/03/10 12:37:29;;;;;;;1.27;1.27;;;13.30;99.90;;;;;;5101667;28;20426;-82
2024/03/10 12:40:01;;;;;;;1.17;1.17;;;13.50;99.90;;;;;;5105758;28;20670;-86
2024/03/10 12:42:30;;;;;;;1.47;1.47;;;13.40;99.90;;;;;;5109110;28;20428;-85
2024/03/10 12:45:01;;;;;;;1.40;1.30;;;13.40;99.90;;;;;;5089224;28;21168;-84
2024/03/10 12:47:39;;;;;;;1.83;1.73;;;13.50;99.90;;;;;;5085501;28;20476;-84
2024/03/10 12:50:12;;;;;;;1.77;1.73;;;13.90;99.90;;;;;;5086751;28;20821;-85
2024/03/10 12:52:42;;;;;;;1.17;1.07;;;14.20;99.90;;;;;;5110595;28;20458;-85
2024/03/10 12:55:11;;;;;;;0.70;0.70;;;14.50;99.90;;;;;;5148327;22;20489;-86
2024/03/10 12:57:41;;;;;;;1.37;1.27;;;14.80;98.40;;;;;;5189526;22;20518;-89
2024/03/10 13:02:57;;;;;;;1.03;1.03;;;14.60;97.90;;;;;;5085577;28;20434;-88
2024/03/10 13:05:28;;;;;;;2.50;1.00;;;14.70;97.40;;;;;;5076574;28;20443;-84
2024/03/10 13:08:01;;;;;;;1.00;0.90;;;14.50;98.00;;;;;;5108328;22;20462;-87
2024/03/10 13:10:29;;;;;;;0.80;0.80;;;14.40;98.50;;;;;;5167805;22;20465;-84
2024/03/10 13:13:01;;;;;;;2.40;2.20;;;14.30;98.70;;;;;;5081818;28;20460;-83
2024/03/10 13:15:30;;;;;;;1.23;1.23;;;14.30;99.80;;;;;;5083623;28;20398;-89
2024/03/10 13:17:57;;;;;;;1.20;1.20;;;14.20;99.90;;;;;;5083566;28;20517;-85
2024/03/10 13:20:24;;;;;;;1.03;1.03;;;14.30;99.90;;;;;;5061563;28;20443;-87
2024/03/10 13:22:53;;;;;;;0.80;0.80;;;14.20;99.90;;;;;;5069329;28;20415;-86
2024/03/10 13:25:21;;;;;;;1.00;0.97;;;14.30;99.90;;;;;;5081011;28;20441;-87
2024/03/10 13:27:53;;;;;;;0.70;0.70;;;14.30;99.90;;;;;;5084396;28;20537;-87
2024/03/10 13:30:25;;;;;;;1.23;1.23;;;14.20;99.90;;;;;;5073281;28;20466;-86
2024/03/10 13:32:53;;;;;;;0.97;0.97;;;14.10;99.90;;;;;;5082171;28;20491;-84
2024/03/10 13:35:20;;;;;;;1.50;1.43;;;14.00;99.90;;;;;;5071771;28;20468;-90
2024/03/10 13:37:49;;;;;;;0.70;0.70;;;14.00;99.90;;;;;;5082502;28;20431;-86
2024/03/10 13:40:19;;;;;;;1.67;1.60;;;14.00;99.90;;;;;;5070453;28;20456;-84
2024/03/10 13:42:47;;;;;;;3.90;3.50;;;14.00;99.90;;;;;;5080322;28;20434;-88
2024/03/10 13:45:17;;;;;;;1.20;1.20;;;14.10;99.90;;;;;;5068609;28;20497;-86
2024/03/10 13:48:08;;;;;;;0.80;0.80;;;14.00;99.90;;;;;;5429785;22;20522;-89
2024/03/10 13:50:39;;;;;;;0.60;0.60;;;14.10;99.90;;;;;;5090480;28;20661;-88
2024/03/10 13:53:09;;;;;;;2.20;1.53;;;14.10;99.90;;;;;;5082501;28;20518;-87